createdAt,value
2017-07-05T00:02:19.669Z,61.30
2017-07-05T00:04:46.086Z,61.80
2017-07-05T00:07:13.220Z,62.30
2017-07-05T00:09:39.641Z,62.80
2017-07-05T00:12:06.033Z,62.70
2017-07-05T00:14:32.428Z,62.80
2017-07-05T00:16:58.834Z,62.60
2017-07-05T00:19:25.244Z,62.70
2017-07-05T00:21:51.674Z,62.10
2017-07-05T00:24:18.078Z,61.60
2017-07-05T00:26:45.215Z,61.10
2017-07-05T00:29:12.374Z,61.10
2017-07-05T00:31:39.510Z,61.20
2017-07-05T00:34:06.668Z,61.00
2017-07-05T00:36:33.832Z,60.90
2017-07-05T00:39:00.260Z,60.90
2017-07-05T00:41:27.393Z,60.50
2017-07-05T00:43:53.811Z,60.50
2017-07-05T00:46:20.257Z,60.40
2017-07-05T00:48:46.658Z,60.60
2017-07-05T00:51:13.320Z,61.50
2017-07-05T00:53:39.720Z,61.10
2017-07-05T00:56:06.195Z,61.00
2017-07-05T00:58:32.601Z,61.20
2017-07-05T01:00:59.014Z,61.00
2017-07-05T01:03:25.425Z,61.00
2017-07-05T01:05:51.901Z,61.00
2017-07-05T01:08:19.258Z,60.60
2017-07-05T01:10:45.656Z,60.60
2017-07-05T01:13:12.078Z,60.70
2017-07-05T01:15:38.497Z,60.70
2017-07-05T01:18:04.945Z,60.90
2017-07-05T01:20:31.354Z,61.40
2017-07-05T01:22:58.501Z,61.90
2017-07-05T01:25:25.642Z,61.60
2017-07-05T01:27:52.042Z,62.00
2017-07-05T01:30:18.459Z,62.60
2017-07-05T01:32:45.132Z,62.70
2017-07-05T01:35:11.582Z,62.60
2017-07-05T01:37:38.745Z,62.10
2017-07-05T01:40:05.921Z,61.50
2017-07-05T01:42:32.327Z,61.40
2017-07-05T01:44:58.808Z,61.30
2017-07-05T01:47:25.249Z,61.50
2017-07-05T01:49:51.658Z,61.40
2017-07-05T01:52:18.170Z,61.10
2017-07-05T01:54:44.619Z,61.40
2017-07-05T01:57:11.110Z,61.70
2017-07-05T01:59:37.519Z,62.00
2017-07-05T02:02:03.944Z,62.10
2017-07-05T02:04:30.354Z,62.30
2017-07-05T02:06:56.821Z,61.60
2017-07-05T02:09:23.238Z,61.70
2017-07-05T02:11:49.653Z,61.50
2017-07-05T02:14:16.082Z,61.90
2017-07-05T02:16:42.502Z,62.20
2017-07-05T02:19:08.966Z,62.50
2017-07-05T02:21:35.380Z,62.20
2017-07-05T02:24:01.794Z,62.80
2017-07-05T02:26:28.962Z,62.70
2017-07-05T02:28:55.377Z,62.60
2017-07-05T02:31:21.803Z,62.00
2017-07-05T02:33:48.969Z,62.00
2017-07-05T02:36:15.360Z,62.00
2017-07-05T02:38:41.742Z,61.80
2017-07-05T02:41:08.148Z,61.90
2017-07-05T02:43:35.282Z,61.70
2017-07-05T02:46:01.693Z,61.70
2017-07-05T02:48:28.114Z,61.90
2017-07-05T02:50:54.520Z,61.70
2017-07-05T02:53:20.933Z,61.70
2017-07-05T02:55:48.072Z,61.50
2017-07-05T02:58:15.278Z,61.30
2017-07-05T03:00:41.711Z,61.30
2017-07-05T03:03:08.122Z,61.40
2017-07-05T03:05:34.537Z,61.40
2017-07-05T03:08:00.949Z,61.40
2017-07-05T03:10:28.606Z,62.40
2017-07-05T03:12:55.776Z,61.60
2017-07-05T03:15:22.987Z,61.60
2017-07-05T03:17:49.429Z,61.50
2017-07-05T03:20:15.852Z,61.70
2017-07-05T03:22:42.251Z,62.40
2017-07-05T03:25:08.811Z,62.80
2017-07-05T03:27:35.298Z,62.50
2017-07-05T03:30:01.696Z,62.40
2017-07-05T03:32:28.864Z,62.20
2017-07-05T03:34:56.029Z,62.50
2017-07-05T03:37:22.458Z,62.40
2017-07-05T03:39:49.600Z,62.30
2017-07-05T03:42:16.754Z,62.50
2017-07-05T03:44:43.931Z,62.70
2017-07-05T03:47:10.340Z,62.60
2017-07-05T03:49:37.528Z,63.50
2017-07-05T03:52:03.931Z,63.40
2017-07-05T03:54:30.345Z,63.80
2017-07-05T03:56:57.512Z,65.10
2017-07-05T03:59:23.931Z,65.10
2017-07-05T04:01:50.331Z,64.90
2017-07-05T04:04:16.801Z,64.50
2017-07-05T04:06:43.309Z,64.60
2017-07-05T04:09:09.758Z,64.40
2017-07-05T04:11:36.158Z,64.20
2017-07-05T04:14:02.568Z,64.40
2017-07-05T04:16:29.012Z,64.30
2017-07-05T04:18:55.397Z,64.20
2017-07-05T04:21:22.576Z,64.10
2017-07-05T04:23:49.045Z,64.00
2017-07-05T04:26:15.472Z,63.80
2017-07-05T04:28:41.968Z,64.20
2017-07-05T04:31:08.385Z,64.10
2017-07-05T04:33:35.516Z,65.40
2017-07-05T04:36:01.943Z,64.70
2017-07-05T04:38:28.352Z,65.00
2017-07-05T04:40:54.797Z,65.10
2017-07-05T04:43:21.232Z,65.10
2017-07-05T04:45:47.648Z,65.20
2017-07-05T04:48:14.035Z,65.40
2017-07-05T04:50:41.206Z,64.80
2017-07-05T04:53:07.662Z,64.80
2017-07-05T04:55:34.329Z,64.50
2017-07-05T04:58:00.732Z,64.40
2017-07-05T05:00:27.160Z,64.40
2017-07-05T05:02:53.581Z,64.80
2017-07-05T05:05:20.065Z,64.60
2017-07-05T05:07:46.532Z,64.70
2017-07-05T05:10:12.971Z,64.80
2017-07-05T05:12:39.373Z,64.80
2017-07-05T05:15:05.792Z,64.60
2017-07-05T05:17:32.205Z,65.00
2017-07-05T05:19:58.663Z,65.00
2017-07-05T05:22:25.090Z,64.50
2017-07-05T05:24:51.500Z,64.10
2017-07-05T05:27:17.910Z,64.00
2017-07-05T05:29:44.809Z,63.90
2017-07-05T05:32:11.424Z,63.20
2017-07-05T05:34:38.709Z,62.20
2017-07-05T05:37:05.897Z,61.80
2017-07-05T05:39:32.275Z,61.90
2017-07-05T05:41:58.736Z,61.70
2017-07-05T05:44:25.905Z,60.80
2017-07-05T05:46:52.348Z,60.70
2017-07-05T05:49:18.768Z,60.90
2017-07-05T05:51:45.172Z,59.50
2017-07-05T05:54:11.618Z,57.60
2017-07-05T05:56:38.105Z,56.50
2017-07-05T05:59:04.536Z,55.50
2017-07-05T06:01:30.997Z,55.30
2017-07-05T06:03:57.401Z,54.10
2017-07-05T06:06:23.913Z,52.60
2017-07-05T06:08:50.340Z,51.90
2017-07-05T06:11:16.772Z,51.00
2017-07-05T06:13:43.209Z,50.10
2017-07-05T06:16:09.632Z,47.00
2017-07-05T06:18:36.066Z,46.50
2017-07-05T06:21:02.476Z,45.10
2017-07-05T06:23:29.611Z,42.50
2017-07-05T06:25:56.059Z,42.40
2017-07-05T06:28:23.211Z,42.20
2017-07-05T06:30:50.357Z,43.50
2017-07-05T06:33:16.820Z,43.50
2017-07-05T06:35:43.386Z,42.50
2017-07-05T06:38:09.795Z,42.60
2017-07-05T06:40:36.191Z,41.90
2017-07-05T06:43:03.358Z,41.70
2017-07-05T06:45:29.785Z,41.70
2017-07-05T06:47:56.922Z,42.20
2017-07-05T06:50:23.335Z,42.20
2017-07-05T06:52:49.741Z,42.00
2017-07-05T06:55:16.135Z,41.80
2017-07-05T06:57:42.551Z,41.60
2017-07-05T07:00:09.748Z,42.30
2017-07-05T07:02:36.184Z,41.70
2017-07-05T07:05:02.630Z,40.30
2017-07-05T07:07:29.037Z,41.30
2017-07-05T07:09:55.505Z,40.90
2017-07-05T07:12:21.938Z,40.90
2017-07-05T07:14:48.347Z,41.20
2017-07-05T07:17:14.742Z,41.40
2017-07-05T07:19:41.917Z,41.40
2017-07-05T07:22:08.316Z,41.40
2017-07-05T07:24:34.738Z,41.90
2017-07-05T07:27:01.124Z,41.20
2017-07-05T07:29:27.557Z,40.80
2017-07-05T07:31:53.980Z,41.00
2017-07-05T07:34:20.397Z,41.30
2017-07-05T07:36:47.597Z,39.70
2017-07-05T07:39:14.021Z,39.60
2017-07-05T07:41:40.476Z,39.00
2017-07-05T07:44:06.869Z,38.50
2017-07-05T07:46:33.264Z,37.80
2017-07-05T07:48:59.675Z,37.90
2017-07-05T07:51:26.091Z,37.80
2017-07-05T07:53:52.515Z,37.80
2017-07-05T07:56:18.912Z,36.80
2017-07-05T07:58:46.093Z,36.60
2017-07-05T08:01:12.517Z,36.60
2017-07-05T08:03:38.945Z,36.90
2017-07-05T08:06:05.388Z,37.30
2017-07-05T08:08:31.792Z,37.20
2017-07-05T08:11:13.168Z,37.50
2017-07-05T08:13:39.603Z,37.70
2017-07-05T08:16:06.733Z,35.90
2017-07-05T08:18:33.180Z,35.90
2017-07-05T08:21:00.515Z,36.30
2017-07-05T08:23:26.918Z,36.30
2017-07-05T08:25:53.332Z,36.50
2017-07-05T08:28:19.728Z,36.40
2017-07-05T08:30:46.132Z,37.10
2017-07-05T08:33:12.554Z,36.80
2017-07-05T08:35:38.966Z,36.90
2017-07-05T08:38:05.438Z,36.80
2017-07-05T08:40:32.087Z,36.70
2017-07-05T08:42:58.549Z,35.60
2017-07-05T08:45:24.968Z,36.00
2017-07-05T08:47:51.349Z,34.70
2017-07-05T08:50:17.836Z,35.30
2017-07-05T08:52:45.074Z,35.40
2017-07-05T08:55:12.304Z,34.80
2017-07-05T08:57:38.758Z,34.80
2017-07-05T09:00:05.945Z,36.00
2017-07-05T09:02:32.385Z,35.90
2017-07-05T09:04:58.782Z,34.90
2017-07-05T09:07:25.190Z,34.70
2017-07-05T09:09:51.612Z,34.80
2017-07-05T09:12:18.034Z,34.70
2017-07-05T09:14:44.478Z,35.10
2017-07-05T09:17:10.899Z,35.50
2017-07-05T09:19:37.358Z,35.00
2017-07-05T09:22:03.835Z,35.30
2017-07-05T09:24:30.974Z,34.20
2017-07-05T09:26:58.136Z,35.40
2017-07-05T09:29:25.351Z,34.30
2017-07-05T09:31:51.741Z,34.30
2017-07-05T09:34:18.179Z,34.30
2017-07-05T09:36:44.861Z,34.50
2017-07-05T09:39:12.053Z,33.90
2017-07-05T09:41:38.513Z,33.80
2017-07-05T09:44:05.005Z,33.70
2017-07-05T09:46:31.417Z,34.20
2017-07-05T09:48:57.883Z,33.60
2017-07-05T09:51:24.337Z,35.30
2017-07-05T09:53:50.731Z,33.50
2017-07-05T09:56:17.145Z,33.90
2017-07-05T09:58:43.586Z,32.80
2017-07-05T10:01:10.103Z,32.80
2017-07-05T10:03:37.285Z,33.80
2017-07-05T10:06:03.712Z,33.80
2017-07-05T10:08:30.128Z,33.80
2017-07-05T10:10:56.564Z,31.80
2017-07-05T10:13:22.948Z,31.60
2017-07-05T10:15:49.355Z,31.60
2017-07-05T10:18:16.505Z,32.40
2017-07-05T10:20:43.656Z,31.20
2017-07-05T10:23:10.801Z,31.20
2017-07-05T10:25:37.958Z,31.60
2017-07-05T10:28:05.115Z,31.80
2017-07-05T10:30:32.286Z,32.10
2017-07-05T10:32:58.769Z,32.00
2017-07-05T10:35:25.242Z,31.90
2017-07-05T10:37:51.695Z,31.60
2017-07-05T10:40:18.123Z,31.80
2017-07-05T10:42:44.558Z,33.20
2017-07-05T10:45:10.971Z,33.10
2017-07-05T10:47:37.353Z,32.90
2017-07-05T10:50:03.760Z,33.90
2017-07-05T10:52:30.164Z,33.60
2017-07-05T10:54:57.294Z,33.60
2017-07-05T10:57:23.693Z,33.50
2017-07-05T10:59:50.117Z,32.60
2017-07-05T11:02:16.544Z,33.00
2017-07-05T11:04:42.980Z,33.20
2017-07-05T11:07:09.405Z,31.30
2017-07-05T11:09:35.834Z,31.10
2017-07-05T11:12:02.304Z,31.50
2017-07-05T11:14:28.707Z,31.80
2017-07-05T11:16:55.119Z,31.70
2017-07-05T11:19:21.580Z,32.90
2017-07-05T11:21:48.001Z,30.90
2017-07-05T11:24:14.432Z,31.90
2017-07-05T11:26:40.863Z,31.10
2017-07-05T11:29:07.269Z,31.40
2017-07-05T11:31:34.412Z,30.60
2017-07-05T11:34:00.813Z,30.50
2017-07-05T11:36:27.223Z,29.90
2017-07-05T11:38:53.626Z,30.30
2017-07-05T11:41:20.021Z,30.90
2017-07-05T11:43:46.465Z,31.40
2017-07-05T11:46:12.876Z,30.40
2017-07-05T11:48:39.313Z,31.40
2017-07-05T11:51:05.720Z,31.40
2017-07-05T11:53:32.111Z,30.90
2017-07-05T11:55:58.517Z,30.00
2017-07-05T11:58:24.925Z,30.00
2017-07-05T12:00:51.315Z,30.00
2017-07-05T12:03:18.458Z,29.90
2017-07-05T12:05:45.622Z,29.60
2017-07-05T12:08:12.768Z,30.30
2017-07-05T12:10:39.883Z,29.70
2017-07-05T12:13:06.326Z,29.80
2017-07-05T12:15:32.776Z,30.20
2017-07-05T12:17:59.982Z,30.00
2017-07-05T12:20:26.407Z,30.00
2017-07-05T12:22:52.810Z,29.90
2017-07-05T12:25:19.949Z,29.20
2017-07-05T12:27:47.112Z,29.40
2017-07-05T12:30:13.531Z,29.30
2017-07-05T12:32:40.651Z,29.70
2017-07-05T12:35:07.094Z,29.30
2017-07-05T12:37:34.286Z,30.00
2017-07-05T12:40:00.692Z,29.60
2017-07-05T12:42:27.845Z,28.50
2017-07-05T12:44:55.073Z,28.60
2017-07-05T12:47:21.476Z,28.70
2017-07-05T12:49:47.923Z,29.30
2017-07-05T12:52:14.325Z,28.70
2017-07-05T12:54:40.737Z,28.60
2017-07-05T12:57:07.893Z,29.30
2017-07-05T12:59:34.271Z,29.30
2017-07-05T13:02:00.699Z,29.50
2017-07-05T13:04:27.132Z,30.30
2017-07-05T13:06:53.507Z,30.10
2017-07-05T13:09:19.908Z,30.80
2017-07-05T13:11:46.302Z,30.20
2017-07-05T13:14:12.737Z,30.10
2017-07-05T13:16:39.211Z,30.30
2017-07-05T13:19:05.650Z,29.50
2017-07-05T13:21:32.314Z,29.40
2017-07-05T13:23:59.443Z,29.50
2017-07-05T13:26:25.875Z,29.50
2017-07-05T13:28:52.260Z,28.90
2017-07-05T13:31:18.673Z,28.70
2017-07-05T13:33:45.098Z,28.90
2017-07-05T13:36:12.538Z,29.00
2017-07-05T13:38:39.009Z,29.00
2017-07-05T13:41:05.423Z,29.60
2017-07-05T13:43:31.836Z,30.00
2017-07-05T13:45:58.252Z,30.00
2017-07-05T13:48:24.654Z,30.00
2017-07-05T13:50:51.095Z,30.00
2017-07-05T13:53:17.538Z,29.50
2017-07-05T13:55:43.968Z,29.70
2017-07-05T13:58:10.385Z,30.30
2017-07-05T14:00:36.814Z,30.00
2017-07-05T14:03:03.231Z,30.20
2017-07-05T14:05:29.673Z,29.90
2017-07-05T14:07:56.071Z,30.00
2017-07-05T14:10:22.473Z,30.10
2017-07-05T14:12:48.896Z,30.50
2017-07-05T14:15:15.284Z,30.40
2017-07-05T14:17:41.716Z,30.30
2017-07-05T14:20:08.856Z,31.10
2017-07-05T14:22:35.326Z,31.10
2017-07-05T14:25:01.740Z,30.00
2017-07-05T14:27:28.160Z,30.40
2017-07-05T14:29:55.347Z,29.80
2017-07-05T14:32:21.760Z,29.80
2017-07-05T14:34:48.885Z,29.60
2017-07-05T14:37:15.313Z,29.60
2017-07-05T14:39:41.743Z,30.00
2017-07-05T14:42:08.163Z,29.20
2017-07-05T14:44:34.610Z,28.10
2017-07-05T14:47:01.074Z,29.00
2017-07-05T14:49:27.575Z,29.50
2017-07-05T14:51:53.981Z,29.50
2017-07-05T14:54:20.362Z,29.00
2017-07-05T14:56:47.200Z,27.90
2017-07-05T14:59:13.594Z,27.80
2017-07-05T15:01:39.983Z,28.50
2017-07-05T15:04:07.130Z,27.50
2017-07-05T15:06:33.607Z,27.50
2017-07-05T15:08:59.992Z,26.90
2017-07-05T15:11:26.392Z,27.90
2017-07-05T15:13:52.824Z,28.30
2017-07-05T15:16:19.250Z,28.80
2017-07-05T15:18:45.665Z,28.50
2017-07-05T15:21:12.086Z,28.70
2017-07-05T15:23:38.550Z,29.00
2017-07-05T15:26:05.033Z,29.00
2017-07-05T15:28:31.433Z,29.50
2017-07-05T15:30:57.822Z,29.70
2017-07-05T15:33:24.229Z,30.00
2017-07-05T15:35:50.616Z,29.40
2017-07-05T15:38:17.019Z,28.80
2017-07-05T15:40:43.404Z,28.80
2017-07-05T15:43:09.808Z,28.70
2017-07-05T15:45:36.572Z,29.00
2017-07-05T15:48:02.975Z,29.20
2017-07-05T15:50:29.379Z,29.10
2017-07-05T15:52:55.806Z,29.00
2017-07-05T15:55:23.003Z,29.20
2017-07-05T15:57:49.401Z,29.20
2017-07-05T16:00:15.809Z,28.70
2017-07-05T16:02:42.216Z,28.70
2017-07-05T16:05:08.631Z,29.00
2017-07-05T16:07:35.018Z,28.40
2017-07-05T16:10:02.189Z,27.70
2017-07-05T16:12:28.600Z,27.70
2017-07-05T16:14:55.005Z,28.20
2017-07-05T16:17:21.400Z,28.80
2017-07-05T16:19:47.796Z,29.60
2017-07-05T16:22:14.183Z,29.80
2017-07-05T16:24:40.587Z,30.10
2017-07-05T16:27:07.253Z,30.00
2017-07-05T16:29:33.659Z,30.10
2017-07-05T16:32:00.070Z,30.20
2017-07-05T16:34:26.509Z,30.10
2017-07-05T16:36:52.966Z,30.50
2017-07-05T16:39:19.397Z,30.70
2017-07-05T16:41:45.818Z,30.80
2017-07-05T16:44:12.217Z,31.20
2017-07-05T16:46:38.612Z,31.50
2017-07-05T16:49:05.021Z,31.30
2017-07-05T16:51:31.422Z,31.40
2017-07-05T16:53:58.573Z,31.30
2017-07-05T16:56:25.750Z,31.80
2017-07-05T16:58:52.153Z,31.80
2017-07-05T17:01:19.298Z,32.20
2017-07-05T17:03:46.454Z,32.50
2017-07-05T17:06:13.606Z,32.90
2017-07-05T17:08:40.749Z,32.50
2017-07-05T17:11:07.908Z,33.40
2017-07-05T17:13:34.413Z,32.80
2017-07-05T17:16:00.826Z,33.30
2017-07-05T17:18:27.234Z,33.40
2017-07-05T17:20:53.629Z,33.90
2017-07-05T17:23:20.048Z,33.90
2017-07-05T17:25:46.431Z,34.00
2017-07-05T17:28:12.872Z,34.10
2017-07-05T17:30:39.294Z,33.90
2017-07-05T17:33:05.756Z,34.60
2017-07-05T17:35:32.233Z,34.90
2017-07-05T17:37:59.389Z,35.50
2017-07-05T17:40:26.519Z,35.60
2017-07-05T17:42:52.934Z,35.50
2017-07-05T17:45:19.361Z,35.50
2017-07-05T17:47:45.776Z,35.70
2017-07-05T17:50:12.197Z,36.40
2017-07-05T17:52:38.605Z,36.00
2017-07-05T17:55:05.783Z,36.60
2017-07-05T17:57:32.214Z,36.50
2017-07-05T17:59:58.631Z,36.80
2017-07-05T18:02:25.049Z,36.90
2017-07-05T18:04:52.230Z,37.50
2017-07-05T18:07:18.676Z,37.50
2017-07-05T18:09:45.095Z,37.50
2017-07-05T18:12:11.526Z,37.40
2017-07-05T18:14:37.964Z,37.30
2017-07-05T18:17:04.424Z,37.80
2017-07-05T18:19:30.857Z,38.90
2017-07-05T18:21:57.255Z,39.30
2017-07-05T18:24:23.673Z,40.70
2017-07-05T18:26:50.848Z,41.40
2017-07-05T18:29:17.257Z,41.40
2017-07-05T18:31:44.459Z,40.00
2017-07-05T18:34:10.870Z,39.90
2017-07-05T18:36:37.299Z,39.80
2017-07-05T18:39:03.850Z,39.80
2017-07-05T18:41:30.216Z,40.80
2017-07-05T18:43:56.643Z,40.70
2017-07-05T18:46:23.045Z,40.80
2017-07-05T18:48:49.459Z,41.00
2017-07-05T18:51:15.830Z,41.20
2017-07-05T18:53:42.278Z,42.00
2017-07-05T18:56:08.682Z,42.30
2017-07-05T18:58:35.165Z,42.40
2017-07-05T19:01:02.323Z,42.50
2017-07-05T19:03:29.429Z,42.50
2017-07-05T19:05:55.828Z,42.30
2017-07-05T19:08:22.224Z,42.70
2017-07-05T19:10:48.637Z,42.80
2017-07-05T19:13:15.064Z,43.10
2017-07-05T19:15:48.562Z,43.30
2017-07-05T19:18:14.967Z,43.50
2017-07-05T19:20:41.375Z,43.80
2017-07-05T19:23:07.799Z,43.60
2017-07-05T19:25:34.953Z,44.60
2017-07-05T19:28:02.107Z,45.40
2017-07-05T19:30:28.525Z,45.40
2017-07-05T19:32:55.942Z,49.10
2017-07-05T19:35:22.346Z,49.10
2017-07-05T19:37:48.783Z,50.60
2017-07-05T19:40:15.213Z,54.30
2017-07-05T19:42:41.641Z,55.90
2017-07-05T19:45:08.070Z,58.30
2017-07-05T19:47:34.485Z,59.40
2017-07-05T19:50:01.683Z,61.50
2017-07-05T19:52:28.917Z,63.50
2017-07-05T19:54:55.353Z,62.70
2017-07-05T19:57:21.757Z,64.70
2017-07-05T19:59:48.997Z,68.00
2017-07-05T20:02:16.242Z,68.20
2017-07-05T20:04:42.668Z,67.50
2017-07-05T20:07:09.082Z,67.90
2017-07-05T20:09:35.504Z,68.60
2017-07-05T20:12:01.927Z,68.60
2017-07-05T20:14:28.344Z,69.10
2017-07-05T20:16:54.771Z,69.60
2017-07-05T20:19:21.187Z,69.30
2017-07-05T20:21:48.463Z,68.60
2017-07-05T20:24:14.913Z,68.70
2017-07-05T20:26:41.305Z,69.60
2017-07-05T20:29:08.482Z,68.80
2017-07-05T20:31:34.894Z,68.70
2017-07-05T20:34:01.376Z,69.00
2017-07-05T20:36:27.780Z,68.90
2017-07-05T20:38:54.188Z,69.30
2017-07-05T20:41:21.357Z,69.40
2017-07-05T20:43:47.761Z,69.40
2017-07-05T20:46:14.197Z,69.40
2017-07-05T20:48:41.364Z,70.10
2017-07-05T20:51:08.503Z,69.60
2017-07-05T20:53:35.683Z,69.50
2017-07-05T20:56:02.112Z,69.50
2017-07-05T20:58:28.566Z,69.80
2017-07-05T21:00:54.975Z,69.50
2017-07-05T21:03:21.377Z,69.20
2017-07-05T21:05:48.561Z,68.30
2017-07-05T21:08:14.963Z,68.20
2017-07-05T21:10:42.104Z,67.80
2017-07-05T21:13:08.532Z,68.40
2017-07-05T21:15:34.945Z,69.10
2017-07-05T21:18:01.343Z,68.90
2017-07-05T21:20:27.767Z,68.40
2017-07-05T21:22:54.183Z,68.40
2017-07-05T21:25:21.327Z,69.10
2017-07-05T21:27:47.737Z,69.10
2017-07-05T21:30:14.126Z,69.00
2017-07-05T21:32:40.521Z,68.80
2017-07-05T21:35:07.130Z,68.80
2017-07-05T21:37:33.544Z,68.90
2017-07-05T21:40:00.125Z,68.20
2017-07-05T21:42:26.542Z,68.10
2017-07-05T21:44:52.949Z,69.50
2017-07-05T21:47:19.362Z,69.10
2017-07-05T21:49:45.760Z,69.20
2017-07-05T21:52:12.192Z,69.60
2017-07-05T21:54:38.600Z,69.60
2017-07-05T21:57:05.001Z,69.60
2017-07-05T21:59:31.401Z,70.50
2017-07-05T22:01:58.618Z,71.60
2017-07-05T22:04:25.043Z,70.90
2017-07-05T22:06:51.457Z,70.50
2017-07-05T22:09:17.908Z,71.10
2017-07-05T22:11:44.337Z,71.50
2017-07-05T22:14:10.742Z,71.20
2017-07-05T22:16:37.146Z,70.70
2017-07-05T22:19:04.328Z,69.60
2017-07-05T22:21:30.763Z,69.60
2017-07-05T22:23:57.159Z,69.10
2017-07-05T22:26:23.575Z,69.00
2017-07-05T22:28:50.006Z,68.10
2017-07-05T22:31:16.413Z,68.70
2017-07-05T22:33:42.820Z,68.40
2017-07-05T22:36:09.254Z,68.10
2017-07-05T22:38:35.722Z,68.10
2017-07-05T22:41:02.129Z,68.20
2017-07-05T22:43:28.546Z,68.10
2017-07-05T22:45:54.954Z,68.10
2017-07-05T22:48:22.153Z,68.00
2017-07-05T22:50:48.571Z,68.00
2017-07-05T22:53:14.996Z,67.90
2017-07-05T22:55:41.423Z,69.20
2017-07-05T22:58:08.536Z,68.80
2017-07-05T23:00:34.962Z,68.80
2017-07-05T23:03:01.389Z,68.90
2017-07-05T23:05:27.788Z,68.90
2017-07-05T23:07:54.216Z,68.80
2017-07-05T23:10:20.627Z,69.00
2017-07-05T23:12:47.786Z,68.80
2017-07-05T23:15:14.178Z,68.40
2017-07-05T23:17:40.571Z,68.30
2017-07-05T23:20:07.042Z,68.80
2017-07-05T23:22:33.453Z,68.80
2017-07-05T23:24:59.858Z,69.20
2017-07-05T23:27:26.244Z,69.30
2017-07-05T23:29:53.645Z,69.30
2017-07-05T23:32:20.064Z,69.00
2017-07-05T23:34:47.218Z,68.70
2017-07-05T23:37:13.634Z,68.70
2017-07-05T23:39:40.831Z,68.30
2017-07-05T23:42:07.268Z,68.30
2017-07-05T23:44:33.677Z,68.40
2017-07-05T23:47:00.111Z,68.30
2017-07-05T23:49:26.516Z,68.30
2017-07-05T23:51:53.667Z,69.10
2017-07-05T23:54:20.084Z,69.10
2017-07-05T23:56:46.510Z,68.00
2017-07-05T23:59:12.934Z,68.40
